Time;durP1;ratioP1;P1;durP2;ratioP2;P2;SDS_P1;SDS_P2;PMS_P1;PMS_P2;Temp;Humidity;BMP_temperature;BMP_pressure;BME280_temperature;BME280_humidity;BME280_pressure;Samples;Min_cycle;Max_cycle;Signal;HPM_P1;HPM_P2
2022/05/28 00:03:08;;;;;;;39.50;35.65;;;;;;;19.04;100.00;99782.91;4791131;23;20050;-72
2022/05/28 00:05:33;;;;;;;38.80;34.75;;;;;;;19.18;100.00;99804.34;4664602;28;9999695;-69
2022/05/28 00:07:59;;;;;;;40.22;36.38;;;;;;;18.71;100.00;99745.63;4997857;28;20069;-70
2022/05/28 00:10:25;;;;;;;39.13;35.55;;;;;;;19.17;100.00;99787.25;5010526;28;20030;-70
2022/05/28 00:12:51;;;;;;;40.75;36.95;;;;;;;18.61;100.00;99789.19;5007260;28;20109;-69
2022/05/28 00:15:17;;;;;;;41.70;37.88;;;;;;;18.84;100.00;99792.84;5010072;28;20076;-69
2022/05/28 00:17:43;;;;;;;41.80;37.60;;;;;;;18.74;100.00;99790.03;4995096;28;20504;-69
2022/05/28 00:20:09;;;;;;;41.13;37.03;;;;;;;18.62;100.00;99790.81;5010312;28;20114;-69
2022/05/28 00:22:43;;;;;;;41.25;37.35;;;;;;;19.00;100.00;99773.72;4991577;28;20041;-70
2022/05/28 00:25:10;;;;;;;44.13;39.80;;;;;;;18.60;100.00;99769.50;4991640;28;20097;-69
2022/05/28 00:27:37;;;;;;;43.42;39.20;;;;;;;18.39;100.00;99747.66;5005169;28;20038;-70
2022/05/28 00:30:03;;;;;;;42.58;38.25;;;;;;;18.79;100.00;99735.66;4998477;28;20031;-69
2022/05/28 00:32:28;;;;;;;42.85;38.67;;;;;;;18.64;100.00;99775.31;4997220;28;20037;-70
2022/05/28 00:34:54;;;;;;;41.95;38.03;;;;;;;18.33;100.00;99698.31;5003329;28;20026;-71
2022/05/28 00:37:19;;;;;;;41.17;37.33;;;;;;;18.75;100.00;99765.13;4998313;28;20026;-69
2022/05/28 00:39:45;;;;;;;44.97;40.58;;;;;;;18.70;100.00;99760.25;4990338;28;20550;-69
2022/05/28 00:42:10;;;;;;;45.60;40.97;;;;;;;18.35;100.00;99722.22;4990047;28;20034;-70
2022/05/28 00:44:36;;;;;;;44.80;40.55;;;;;;;18.15;100.00;99715.75;5003642;28;20029;-69
2022/05/28 00:47:02;;;;;;;46.20;41.67;;;;;;;18.48;100.00;99754.81;5005163;28;20388;-69
2022/05/28 00:49:30;;;;;;;46.50;41.83;;;;;;;18.28;100.00;99723.53;4997717;28;20022;-69
2022/05/28 00:52:01;;;;;;;45.85;41.65;;;;;;;18.13;100.00;99715.03;4990269;28;20030;-70
2022/05/28 00:54:32;;;;;;;45.60;41.03;;;;;;;17.97;100.00;99697.16;4990229;28;20427;-69
2022/05/28 00:56:58;;;;;;;45.23;40.93;;;;;;;18.39;100.00;99742.53;5003335;28;20035;-70
2022/05/28 00:59:24;;;;;;;45.60;41.30;;;;;;;18.07;100.00;99698.25;4996279;28;20092;-70
2022/05/28 01:01:54;;;;;;;44.58;40.58;;;;;;;18.33;100.00;99718.91;5005033;28;20038;-69
2022/05/28 01:04:31;;;;;;;45.22;40.92;;;;;;;18.35;100.00;99741.06;5011076;28;20835;-69
2022/05/28 01:07:36;;;;;;;45.13;40.88;;;;;;;18.27;100.00;99751.03;4997543;28;20031;-69
2022/05/28 01:10:25;;;;;;;46.17;41.72;;;;;;;18.03;100.00;99708.81;4992156;28;20497;-69
2022/05/28 01:13:02;;;;;;;46.08;41.67;;;;;;;18.16;100.00;99733.66;5015426;28;20346;-69
2022/05/28 01:15:35;;;;;;;43.10;39.10;;;;;;;18.23;100.00;99720.41;5014718;28;20026;-69
2022/05/28 01:18:39;;;;;;;46.72;42.20;;;;;;;18.33;100.00;99754.94;5015094;28;20033;-69
2022/05/28 01:21:15;;;;;;;42.90;38.90;;;;;;;18.32;100.00;99751.56;5002132;28;20478;-69
2022/05/28 01:24:29;;;;;;;43.13;39.05;;;;;;;18.52;100.00;99738.25;5014795;28;20034;-69
2022/05/28 01:26:57;;;;;;;47.28;42.60;;;;;;;18.11;100.00;99750.31;4995609;28;20046;-69
2022/05/28 01:29:28;;;;;;;45.90;41.42;;;;;;;18.19;100.00;99725.78;5014887;28;20033;-69
2022/05/28 01:31:56;;;;;;;47.17;42.75;;;;;;;18.30;100.00;99744.88;5014904;28;20037;-69
2022/05/28 01:34:23;;;;;;;47.53;42.78;;;;;;;17.84;100.00;99714.28;5014702;28;20026;-69
2022/05/28 01:36:49;;;;;;;45.80;41.28;;;;;;;18.04;100.00;99695.03;5014653;28;20033;-68
2022/05/28 01:39:18;;;;;;;45.17;40.78;;;;;;;18.40;100.00;99746.72;5013284;28;20038;-69
2022/05/28 01:41:45;;;;;;;44.13;39.72;;;;;;;18.35;100.00;99741.06;5013326;28;20237;-69
2022/05/28 01:44:12;;;;;;;48.78;43.83;;;;;;;17.86;100.00;99719.34;5014254;28;20041;-68
2022/05/28 01:46:39;;;;;;;48.03;43.47;;;;;;;18.10;100.00;99739.19;5013307;28;20029;-68
2022/05/28 01:49:09;;;;;;;47.15;42.15;;;;;;;18.23;100.00;99726.41;5014063;28;20191;-69
2022/05/28 01:51:40;;;;;;;47.30;42.65;;;;;;;18.61;100.00;99722.22;5014594;28;20033;-69
2022/05/28 01:54:08;;;;;;;49.00;44.40;;;;;;;18.09;100.00;99719.56;5012976;28;20030;-69
2022/05/28 01:56:40;;;;;;;48.33;43.35;;;;;;;17.78;100.00;99677.84;5014315;28;20463;-69
2022/05/28 01:59:06;;;;;;;48.75;43.85;;;;;;;18.02;100.00;99705.44;5014516;28;20036;-69
2022/05/28 02:01:31;;;;;;;46.47;41.88;;;;;;;17.86;100.00;99701.34;5014164;28;20034;-69
2022/05/28 02:04:00;;;;;;;44.65;40.45;;;;;;;18.30;100.00;99726.84;5029264;28;20108;-68
2022/05/28 02:06:26;;;;;;;45.92;41.42;;;;;;;18.48;100.00;99721.34;5013056;28;20352;-69
2022/05/28 02:08:56;;;;;;;49.58;44.53;;;;;;;18.04;100.00;99738.78;5014251;28;20034;-69
2022/05/28 02:11:28;;;;;;;47.35;42.75;;;;;;;18.15;100.00;99733.78;5014247;28;20100;-70
2022/05/28 02:14:05;;;;;;;46.47;41.63;;;;;;;18.51;100.00;99746.94;5013974;28;20034;-70
2022/05/28 02:16:57;;;;;;;48.97;43.95;;;;;;;18.37;100.00;99716.06;5013666;28;20053;-71
2022/05/28 02:19:40;;;;;;;48.30;43.35;;;;;;;17.77;100.00;99689.03;5013446;28;20113;-69
2022/05/28 02:22:13;;;;;;;47.05;42.35;;;;;;;18.04;100.00;99752.44;5012843;28;20030;-69
2022/05/28 02:24:45;;;;;;;48.15;43.30;;;;;;;18.00;100.00;99740.72;5013392;28;20121;-69
2022/05/28 02:27:18;;;;;;;44.40;40.08;;;;;;;18.55;100.00;99748.38;5012518;28;20492;-69
2022/05/28 02:29:44;;;;;;;46.85;42.45;;;;;;;18.60;100.00;99759.19;5013643;28;20037;-69
2022/05/28 02:32:22;;;;;;;43.88;39.58;;;;;;;18.30;100.00;99742.28;5013060;28;20034;-70
2022/05/28 02:34:50;;;;;;;46.60;42.10;;;;;;;18.19;100.00;99725.78;5013231;28;20029;-68
2022/05/28 02:37:19;;;;;;;43.40;39.30;;;;;;;18.31;100.00;99738.78;5012150;28;20034;-68
2022/05/28 02:39:44;;;;;;;47.85;43.15;;;;;;;18.06;100.00;99734.38;5012222;28;20026;-69
2022/05/28 02:42:10;;;;;;;45.90;41.42;;;;;;;18.41;100.00;99758.69;5013282;28;20041;-69
2022/05/28 02:44:35;;;;;;;47.47;42.85;;;;;;;18.15;100.00;99726.88;5012022;28;20080;-70
2022/05/28 02:47:01;;;;;;;46.45;41.88;;;;;;;17.97;100.00;99709.19;5011930;28;20030;-69
2022/05/28 02:49:27;;;;;;;45.83;41.53;;;;;;;18.25;100.00;99740.00;5011869;28;20380;-69
2022/05/28 02:51:53;;;;;;;47.38;42.47;;;;;;;17.89;100.00;99740.53;5013120;28;20123;-70
2022/05/28 02:54:19;;;;;;;46.75;42.05;;;;;;;17.73;100.00;99714.13;5011628;28;20479;-69
2022/05/28 02:56:45;;;;;;;46.53;42.05;;;;;;;17.90;100.00;99737.06;5013042;28;20040;-69
2022/05/28 02:59:11;;;;;;;46.25;41.92;;;;;;;18.26;100.00;99741.66;5012956;28;20029;-70
2022/05/28 03:01:37;;;;;;;45.22;40.72;;;;;;;18.46;100.00;99745.56;5013470;28;20117;-70
2022/05/28 03:04:05;;;;;;;44.78;40.47;;;;;;;18.34;100.00;99721.41;5012790;28;20510;-69
2022/05/28 03:06:30;;;;;;;44.90;40.50;;;;;;;18.11;100.00;99725.44;5012942;28;20026;-69
2022/05/28 03:08:56;;;;;;;43.03;38.83;;;;;;;18.58;100.00;99750.75;5012859;28;20030;-70
2022/05/28 03:11:21;;;;;;;42.30;38.22;;;;;;;18.41;100.00;99730.38;5005671;28;20474;-70
2022/05/28 03:13:48;;;;;;;45.05;40.55;;;;;;;18.55;100.00;99768.16;5016202;28;20034;-69
2022/05/28 03:16:13;;;;;;;45.70;41.33;;;;;;;18.30;100.00;99750.00;5012862;28;20030;-69
2022/05/28 03:18:39;;;;;;;45.10;40.33;;;;;;;18.76;100.00;99777.91;5012692;28;20036;-69
2022/05/28 03:21:06;;;;;;;46.25;41.72;;;;;;;18.74;100.00;99779.75;5012261;28;20042;-71
2022/05/28 03:23:31;;;;;;;44.38;39.97;;;;;;;18.39;100.00;99770.84;5011459;28;20571;-70
2022/05/28 03:25:57;;;;;;;43.22;39.08;;;;;;;18.20;100.00;99762.63;5011360;28;20113;-69
2022/05/28 03:28:22;;;;;;;43.60;39.33;;;;;;;18.01;100.00;99732.06;5027051;28;20416;-70
2022/05/28 03:30:48;;;;;;;44.67;40.20;;;;;;;18.16;100.00;99731.09;5012572;28;20029;-70
2022/05/28 03:33:14;;;;;;;41.08;37.17;;;;;;;17.95;100.00;99729.88;5011917;28;20041;-69
2022/05/28 03:35:40;;;;;;;41.97;37.80;;;;;;;18.48;100.00;99752.25;5012353;28;20033;-69
2022/05/28 03:38:06;;;;;;;41.95;37.70;;;;;;;18.21;100.00;99728.25;5011136;28;20155;-69
2022/05/28 03:40:33;;;;;;;41.42;37.30;;;;;;;18.41;100.00;99757.88;5010857;28;20129;-68
2022/05/28 03:42:58;;;;;;;41.08;37.08;;;;;;;18.42;100.00;99751.81;5012126;28;20045;-69
2022/05/28 03:45:26;;;;;;;41.70;37.55;;;;;;;18.29;100.00;99738.88;5010971;28;20029;-69
2022/05/28 03:47:52;;;;;;;40.58;36.60;;;;;;;18.30;100.00;99742.28;5011936;28;20037;-69
2022/05/28 03:50:18;;;;;;;39.50;35.60;;;;;;;18.29;100.00;99713.16;5008390;28;20022;-70
2022/05/28 03:52:43;;;;;;;40.88;36.75;;;;;;;18.29;100.00;99733.72;5011902;28;20021;-69
2022/05/28 03:55:09;;;;;;;39.80;35.80;;;;;;;18.64;100.00;99773.53;5011847;28;20455;-69
2022/05/28 03:57:35;;;;;;;38.90;34.97;;;;;;;18.82;100.00;99762.03;5010677;28;20034;-69
2022/05/28 04:00:01;;;;;;;42.83;38.50;;;;;;;18.41;100.00;99774.16;5012039;28;20034;-69
2022/05/28 04:02:27;;;;;;;42.70;38.35;;;;;;;18.47;100.00;99749.78;5011672;28;20045;-70
2022/05/28 04:04:53;;;;;;;41.53;37.28;;;;;;;18.81;100.00;99770.72;5011246;28;20026;-69
2022/05/28 04:07:19;;;;;;;42.25;38.30;;;;;;;18.89;100.00;99772.78;5010085;28;20042;-70
2022/05/28 04:09:45;;;;;;;40.78;36.67;;;;;;;18.65;100.00;99741.72;5011310;28;20100;-69
2022/05/28 04:12:11;;;;;;;41.80;37.90;;;;;;;18.39;100.00;99750.25;5011407;28;20033;-68
2022/05/28 04:14:37;;;;;;;41.45;37.35;;;;;;;18.68;100.00;99718.31;5011929;28;20468;-68
2022/05/28 04:17:03;;;;;;;40.40;36.42;;;;;;;18.82;100.00;99712.25;5011561;28;20068;-68
2022/05/28 04:19:29;;;;;;;40.97;36.97;;;;;;;18.76;100.00;99739.25;5011358;28;20042;-68
2022/05/28 04:21:54;;;;;;;40.63;36.53;;;;;;;19.05;100.00;99763.13;5009866;28;20029;-70
2022/05/28 04:24:20;;;;;;;41.90;37.80;;;;;;;18.96;100.00;99741.34;5011295;28;20030;-69
2022/05/28 04:26:45;;;;;;;42.33;38.03;;;;;;;18.97;100.00;99773.94;5010019;28;20021;-69
2022/05/28 04:29:10;;;;;;;40.28;36.38;;;;;;;19.52;100.00;99735.00;5010003;28;20562;-69
2022/05/28 04:31:36;;;;;;;40.33;36.42;;;;;;;19.51;100.00;99797.81;5010143;28;20038;-70
2022/05/28 04:34:02;;;;;;;39.03;34.97;;;;;;;19.54;100.00;99773.56;5011014;28;20087;-69
2022/05/28 04:36:27;;;;;;;39.55;35.72;;;;;;;19.26;100.00;99791.78;5011419;28;20037;-69
2022/05/28 04:38:53;;;;;;;39.72;35.72;;;;;;;19.56;100.00;99784.59;5011088;28;20048;-69
2022/05/28 04:41:18;;;;;;;37.90;34.30;;;;;;;19.98;100.00;99776.50;5010060;28;20030;-70
2022/05/28 04:43:44;;;;;;;39.05;35.38;;;;;;;20.09;100.00;99801.56;5011192;28;20187;-71
2022/05/28 04:46:09;;;;;;;38.45;34.65;;;;;;;19.80;100.00;99780.34;5010822;28;20458;-66
2022/05/28 04:48:35;;;;;;;37.20;33.80;;;;;;;20.32;100.00;99811.13;5010828;28;20053;-67
2022/05/28 04:51:01;;;;;;;35.75;32.28;;;;;;;20.39;100.00;99794.25;5009861;28;20029;-69
2022/05/28 04:53:26;;;;;;;32.95;29.90;;;;;;;20.46;100.00;99783.38;5011151;28;20084;-69
2022/05/28 04:55:52;;;;;;;33.95;30.75;;;;;;;20.90;100.00;99818.94;5010795;28;20064;-68
2022/05/28 04:58:18;;;;;;;34.17;30.77;;;;;;;20.90;100.00;99815.53;5011119;28;20556;-68
2022/05/28 05:00:45;;;;;;;31.70;28.45;;;;;;;20.78;100.00;99806.91;5010368;28;20499;-67
2022/05/28 05:03:11;;;;;;;31.77;28.73;;;;;;;20.36;100.00;99797.88;5010904;28;20053;-66
2022/05/28 05:05:36;;;;;;;34.13;30.83;;;;;;;20.78;100.00;99827.56;5011273;28;20408;-68
2022/05/28 05:08:02;;;;;;;34.70;31.60;;;;;;;20.46;100.00;99788.53;5011238;28;20551;-68
2022/05/28 05:10:27;;;;;;;34.70;31.33;;;;;;;20.45;100.00;99822.25;5026623;28;20018;-69
2022/05/28 05:12:53;;;;;;;34.15;30.83;;;;;;;20.20;100.00;99791.34;5011944;28;20396;-69
2022/05/28 05:15:18;;;;;;;33.90;30.48;;;;;;;20.32;100.00;99755.13;5011374;28;20033;-73
2022/05/28 05:17:44;;;;;;;32.40;29.40;;;;;;;20.71;100.00;99803.94;5009893;28;20069;-68
2022/05/28 05:20:11;;;;;;;32.15;29.05;;;;;;;20.99;100.00;99825.19;5011354;28;20022;-68
2022/05/28 05:22:37;;;;;;;29.85;27.05;;;;;;;21.47;100.00;99819.00;5011263;28;20089;-69
2022/05/28 05:25:04;;;;;;;29.90;27.05;;;;;;;21.37;100.00;99808.50;5010990;28;20033;-70
2022/05/28 05:27:30;;;;;;;28.63;25.83;;;;;;;21.32;100.00;99784.75;5009494;28;20621;-72
2022/05/28 05:29:57;;;;;;;26.90;24.38;;;;;;;21.59;100.00;99800.78;5009905;28;20188;-74
2022/05/28 05:32:23;;;;;;;27.42;24.75;;;;;;;21.67;100.00;99818.31;5011667;28;20421;-73
2022/05/28 05:34:49;;;;;;;26.88;24.25;;;;;;;21.61;100.00;99782.53;5011877;28;20033;-78
2022/05/28 05:37:14;;;;;;;24.75;22.50;;;;;;;22.02;100.00;99819.06;5011421;28;20029;-74
2022/05/28 05:39:40;;;;;;;22.55;20.55;;;;;;;22.47;100.00;99821.56;5009494;28;20052;-73
2022/05/28 05:42:06;;;;;;;20.17;18.17;;;;;;;22.40;100.00;99824.63;5010686;28;20080;-70
2022/05/28 05:44:31;;;;;;;18.63;16.90;;;;;;;22.37;100.00;99817.13;5011515;28;20032;-67
2022/05/28 05:46:56;;;;;;;18.17;16.15;;;;;;;22.79;100.00;99825.88;5010528;28;20049;-73
2022/05/28 05:49:22;;;;;;;18.40;16.75;;;;;;;22.71;100.00;99825.66;5011477;28;20120;-72
2022/05/28 06:22:21;;;;;;;16.15;14.43;;;;;;;24.24;100.00;99812.75;5108443;27;20564;-70
2022/05/28 06:24:46;;;;;;;16.10;14.30;;;;;;;24.49;100.00;99833.06;5108380;28;20473;-71
2022/05/28 06:27:12;;;;;;;14.73;12.98;;;;;;;24.44;100.00;99811.84;5099438;28;20481;-78
2022/05/28 06:29:38;;;;;;;34.05;15.30;;;;;;;24.92;100.00;99792.72;5087352;28;20127;-71
2022/05/28 06:32:04;;;;;;;76.22;15.27;;;;;;;24.69;100.00;99795.72;5086734;28;20521;-71
2022/05/28 06:34:29;;;;;;;40.30;14.05;;;;;;;25.11;100.00;99817.91;5088387;28;20497;-74
2022/05/28 06:36:54;;;;;;;64.20;15.43;;;;;;;25.63;100.00;99819.19;5086700;28;20389;-74
2022/05/28 06:39:20;;;;;;;117.97;20.02;;;;;;;25.73;100.00;99823.38;5068391;28;20112;-74
2022/05/28 06:41:45;;;;;;;37.03;14.55;;;;;;;25.31;100.00;99795.28;5073173;28;20038;-73
2022/05/28 06:44:11;;;;;;;32.05;14.27;;;;;;;25.55;100.00;99790.44;5086426;28;20119;-72
2022/05/28 06:46:37;;;;;;;65.32;16.40;;;;;;;25.34;100.00;99805.38;5088068;28;20036;-73
2022/05/28 06:49:02;;;;;;;14.65;12.18;;;;;;;25.29;100.00;99798.03;5086670;28;20028;-73
2022/05/28 06:51:28;;;;;;;34.53;13.73;;;;;;;25.74;100.00;99806.81;5087911;28;20036;-71
2022/05/28 06:53:54;;;;;;;38.28;14.35;;;;;;;26.16;100.00;99801.16;5086973;28;20062;-73
2022/05/28 06:56:19;;;;;;;25.33;13.18;;;;;;;26.84;100.00;99803.13;5086634;28;20120;-73
2022/05/28 06:58:46;;;;;;;56.92;15.25;;;;;;;25.92;100.00;99782.59;5087532;28;20044;-73
2022/05/28 07:01:14;;;;;;;18.08;12.20;;;;;;;26.28;100.00;99794.75;5086952;28;20040;-74
2022/05/28 07:03:43;;;;;;;16.20;11.88;;;;;;;26.56;100.00;99806.78;5107322;28;20036;-74
2022/05/28 07:06:10;;;;;;;23.90;11.38;;;;;;;26.56;100.00;99812.00;5108961;28;20072;-75
2022/05/28 07:08:35;;;;;;;23.02;11.93;;;;;;;27.21;100.00;99803.78;5108932;28;20028;-75
2022/05/28 07:11:05;;;;;;;25.92;10.68;;;;;;;27.05;100.00;99780.16;5096918;28;20387;-70
2022/05/28 07:13:30;;;;;;;17.98;10.00;;;;;;;26.74;100.00;99799.78;5087146;28;20028;-76
2022/05/28 07:15:56;;;;;;;11.60;10.40;;;;;;;25.53;100.00;99781.94;5088009;28;20120;-76
2022/05/28 07:18:22;;;;;;;12.48;10.68;;;;;;;26.37;100.00;99773.00;5087425;28;20187;-79
2022/05/28 07:20:48;;;;;;;23.73;11.57;;;;;;;26.72;100.00;99767.81;5094631;28;20135;-78
2022/05/28 07:23:22;;;;;;;25.45;11.50;;;;;;;26.11;100.00;99787.72;5095402;28;20039;-73
2022/05/28 07:25:48;;;;;;;62.85;12.82;;;;;;;26.31;100.00;99747.53;5094753;28;20489;-76
2022/05/28 07:28:25;;;;;;;46.95;10.98;;;;;;;25.76;100.00;99788.44;5093219;28;20020;-76
2022/05/28 07:31:18;;;;;;;23.35;10.32;;;;;;;26.52;100.00;99792.41;5070825;28;20025;-73
2022/05/28 07:33:45;;;;;;;24.25;9.50;;;;;;;25.74;100.00;99748.66;5050256;28;20053;-73
2022/05/28 07:36:22;;;;;;;73.85;13.18;;;;;;;26.39;100.00;99786.72;5052797;28;20048;-76
2022/05/28 07:38:49;;;;;;;44.65;10.25;;;;;;;26.67;100.00;99770.03;5053242;28;20515;-69
2022/05/28 07:41:17;;;;;;;17.75;8.60;;;;;;;27.07;100.00;99774.78;5053218;28;20039;-70
2022/05/28 07:43:43;;;;;;;30.17;9.10;;;;;;;27.96;100.00;99744.75;5053101;28;20422;-71
2022/05/28 07:46:19;;;;;;;35.42;9.55;;;;;;;27.83;99.94;99758.22;5053206;28;20474;-69
2022/05/28 07:48:44;;;;;;;34.10;8.52;;;;;;;27.67;98.32;99726.00;5053345;28;20037;-71
2022/05/28 07:51:10;;;;;;;12.13;7.18;;;;;;;26.60;100.00;99688.13;5052102;28;20040;-73
2022/05/28 07:53:36;;;;;;;59.83;12.02;;;;;;;27.67;100.00;99720.78;5058944;28;20032;-73
2022/05/28 07:56:03;;;;;;;19.45;7.28;;;;;;;26.91;100.00;99704.19;5071943;28;20028;-72
2022/05/28 07:58:29;;;;;;;18.90;7.75;;;;;;;26.82;100.00;99724.19;5071916;28;20037;-73
2022/05/28 08:00:55;;;;;;;27.83;7.80;;;;;;;27.12;100.00;99707.25;5081867;28;20032;-73
2022/05/28 08:03:20;;;;;;;48.70;10.63;;;;;;;27.45;98.16;99733.41;5092256;28;20024;-72
2022/05/28 08:05:49;;;;;;;14.63;7.25;;;;;;;28.11;93.88;99740.53;5093389;28;20054;-74
2022/05/28 08:08:16;;;;;;;7.70;6.35;;;;;;;26.44;100.00;99722.69;5082586;28;20031;-75
2022/05/28 08:10:41;;;;;;;13.13;7.07;;;;;;;27.37;97.37;99735.19;5071434;28;20062;-74
2022/05/28 08:13:11;;;;;;;15.55;6.93;;;;;;;27.71;96.91;99735.16;5071554;28;20567;-72
2022/05/28 08:15:39;;;;;;;44.72;8.77;;;;;;;27.79;92.46;99730.75;5071120;28;20551;-73
2022/05/28 08:18:05;;;;;;;114.22;14.73;;;;;;;27.82;90.64;99733.06;5071534;28;20028;-72
2022/05/28 08:23:16;;;;;;;35.10;9.60;;;;;;;28.01;97.89;99724.97;5072446;28;20035;-70
2022/05/28 08:25:41;;;;;;;21.13;6.80;;;;;;;27.87;92.12;99749.09;5072270;28;20028;-71
2022/05/28 08:28:08;;;;;;;10.75;6.10;;;;;;;27.39;96.52;99747.09;5070190;28;20044;-72
2022/05/28 08:30:35;;;;;;;15.68;6.65;;;;;;;27.67;91.84;99754.75;5072135;28;20545;-72
2022/05/28 08:33:01;;;;;;;15.20;7.00;;;;;;;27.85;92.88;99739.78;5060646;28;20502;-73
2022/05/28 08:35:27;;;;;;;11.50;7.45;;;;;;;27.48;94.90;99745.34;5065796;28;20031;-72
2022/05/28 08:37:52;;;;;;;10.85;5.53;;;;;;;27.25;95.85;99726.75;5061750;28;20448;-73
2022/05/28 08:40:18;;;;;;;15.73;6.47;;;;;;;27.31;97.61;99720.91;5070766;28;20037;-72
2022/05/28 08:42:43;;;;;;;11.70;7.07;;;;;;;27.02;100.00;99723.00;5071600;28;20028;-72
2022/05/28 08:45:12;;;;;;;14.38;7.10;;;;;;;27.22;100.00;99724.44;5072137;28;20029;-71
2022/05/28 08:47:42;;;;;;;11.35;7.43;;;;;;;27.00;100.00;99714.53;5070695;28;20028;-70
2022/05/28 08:50:10;;;;;;;10.77;8.30;;;;;;;26.85;100.00;99699.56;5070426;28;20028;-70
2022/05/28 08:53:11;;;;;;;16.60;9.30;;;;;;;27.35;100.00;99696.16;5071804;28;20028;-71
2022/05/28 08:55:43;;;;;;;15.68;9.30;;;;;;;26.90;100.00;99674.66;5066268;28;20033;-71
2022/05/28 08:58:13;;;;;;;14.23;8.98;;;;;;;27.28;100.00;99676.81;5070247;28;20490;-71
2022/05/28 09:00:41;;;;;;;12.75;8.55;;;;;;;27.18;100.00;99676.13;5070377;28;20066;-71
2022/05/28 09:03:12;;;;;;;10.57;8.32;;;;;;;27.33;100.00;99692.06;5070457;28;20051;-72
2022/05/28 09:06:12;;;;;;;10.85;8.18;;;;;;;27.13;100.00;99708.91;5072885;28;20031;-71
2022/05/28 09:08:48;;;;;;;15.53;8.87;;;;;;;27.65;100.00;99700.03;5088306;28;20123;-71
2022/05/28 09:11:18;;;;;;;9.88;7.28;;;;;;;26.37;100.00;99679.13;5090234;28;20044;-70
2022/05/28 09:13:49;;;;;;;8.38;6.78;;;;;;;27.12;100.00;99707.25;5091502;28;20028;-72
2022/05/28 09:16:27;;;;;;;10.98;7.80;;;;;;;27.23;100.00;99702.59;5090038;28;20093;-71
2022/05/28 09:18:54;;;;;;;9.77;7.97;;;;;;;26.68;100.00;99682.97;5091385;28;20023;-71
2022/05/28 09:21:21;;;;;;;12.35;8.15;;;;;;;26.50;100.00;99705.66;5091415;28;20120;-72
2022/05/28 09:23:58;;;;;;;12.15;8.60;;;;;;;26.78;100.00;99664.63;5091361;28;20398;-70
2022/05/28 09:26:36;;;;;;;13.82;9.50;;;;;;;27.06;100.00;99669.53;5090009;28;20031;-71
2022/05/28 09:29:46;;;;;;;11.98;9.15;;;;;;;28.08;100.00;99697.22;5090085;28;20028;-71
2022/05/28 09:32:48;;;;;;;10.77;9.80;;;;;;;28.04;100.00;99679.41;5052311;28;20521;-71
2022/05/28 09:35:13;;;;;;;;;;;;;;;28.48;100.00;99683.34;5091846;28;20027;-70
2022/05/28 09:37:57;;;;;;;10.90;9.50;;;;;;;28.73;100.00;99656.19;5083820;28;19998;-69
2022/05/28 09:40:35;;;;;;;10.10;8.98;;;;;;;28.24;100.00;99681.56;5066004;28;20029;-70
2022/05/28 09:43:03;;;;;;;11.30;8.98;;;;;;;28.75;100.00;99680.41;5069206;28;20569;-70
2022/05/28 09:45:48;;;;;;;10.00;9.10;;;;;;;28.59;100.00;99641.16;5070357;28;20107;-69
2022/05/28 09:48:22;;;;;;;11.50;8.50;;;;;;;27.26;100.00;99650.03;5070947;28;20031;-70
2022/05/28 09:50:47;;;;;;;12.68;9.20;;;;;;;28.20;100.00;99638.41;5070607;28;20028;-69
2022/05/28 09:56:23;;;;;;;11.20;8.77;;;;;;;27.91;100.00;99650.28;5070817;28;20055;-70
2022/05/28 09:58:49;;;;;;;10.23;8.10;;;;;;;28.56;100.00;99653.78;5069304;28;20028;-69
2022/05/28 10:01:21;;;;;;;10.68;8.10;;;;;;;29.08;92.28;99649.72;5069496;28;20040;-70
2022/05/28 10:06:32;;;;;;;12.27;10.73;;;;;;;28.61;100.00;99638.38;5070307;28;20587;-71
2022/05/28 10:09:10;;;;;;;10.65;9.38;;;;;;;28.28;100.00;99622.69;5061549;28;20029;-70
2022/05/28 10:11:36;;;;;;;10.52;9.02;;;;;;;28.33;100.00;99653.56;5064050;28;20040;-70
2022/05/28 10:14:03;;;;;;;9.80;8.75;;;;;;;28.45;100.00;99647.03;5070506;28;20474;-66
2022/05/28 10:16:48;;;;;;;12.48;9.27;;;;;;;29.30;93.21;99642.94;5068688;28;20033;-70
2022/05/28 10:19:19;;;;;;;10.50;8.82;;;;;;;30.27;87.87;99659.75;5060645;28;20032;-69
2022/05/28 10:21:51;;;;;;;10.02;7.55;;;;;;;29.20;79.75;99640.53;5050094;28;20127;-70
2022/05/28 10:24:20;;;;;;;9.75;6.80;;;;;;;29.33;83.87;99637.38;5050484;28;20487;-69
2022/05/28 10:26:59;;;;;;;11.05;8.00;;;;;;;29.92;84.69;99653.28;5058521;28;20592;-78
2022/05/28 10:29:31;;;;;;;13.95;8.43;;;;;;;29.87;87.24;99646.94;5070561;28;20498;-70
2022/05/28 10:31:59;;;;;;;8.60;7.65;;;;;;;29.27;85.07;99609.25;5068037;28;20043;-72
2022/05/28 10:34:30;;;;;;;11.07;7.22;;;;;;;29.76;82.75;99640.28;5070346;28;20017;-70
2022/05/28 10:37:25;;;;;;;12.25;6.00;;;;;;;28.91;73.06;99648.97;5069028;28;20036;-70
2022/05/28 10:40:02;;;;;;;8.82;5.70;;;;;;;28.90;73.80;99608.03;5061217;28;20045;-70
2022/05/28 10:42:28;;;;;;;12.95;6.28;;;;;;;29.82;74.85;99644.84;5068958;28;20383;-70
2022/05/28 10:44:53;;;;;;;12.45;6.70;;;;;;;29.39;79.66;99613.09;5070212;28;20032;-70
2022/05/28 10:47:38;;;;;;;13.48;7.65;;;;;;;30.31;80.59;99628.75;5068902;28;20086;-69
2022/05/28 10:50:34;;;;;;;10.07;7.55;;;;;;;30.44;81.84;99623.72;5068796;28;20036;-70
2022/05/28 10:53:13;;;;;;;13.05;7.72;;;;;;;29.86;82.43;99622.53;5068986;28;20037;-72
2022/05/28 10:56:13;;;;;;;13.23;7.43;;;;;;;30.39;80.30;99618.16;5070617;28;20025;-72
2022/05/28 10:58:41;;;;;;;10.65;7.50;;;;;;;30.69;78.84;99620.66;5072407;28;20028;-71
2022/05/28 11:01:40;;;;;;;11.75;7.43;;;;;;;31.31;78.76;99620.28;5072407;28;20407;-71
2022/05/28 11:04:23;;;;;;;9.10;6.63;;;;;;;30.12;75.58;99606.41;5070964;28;20551;-71
2022/05/28 11:07:01;;;;;;;13.43;6.97;;;;;;;30.65;72.27;99615.94;5067337;28;20039;-71
2022/05/28 11:09:41;;;;;;;10.05;6.75;;;;;;;29.95;72.93;99607.53;5058454;28;20554;-72
2022/05/28 11:12:21;;;;;;;10.82;6.93;;;;;;;30.03;76.60;99615.31;5052397;28;20033;-71
2022/05/28 11:14:49;;;;;;;9.32;6.20;;;;;;;30.10;74.06;99610.19;5058036;28;20028;-71
2022/05/28 11:17:18;;;;;;;7.72;6.18;;;;;;;29.70;74.70;99622.59;5052196;28;20065;-71
2022/05/28 11:19:43;;;;;;;13.98;7.28;;;;;;;30.07;75.28;99607.94;5052020;28;20039;-70
2022/05/28 11:22:27;;;;;;;12.10;6.20;;;;;;;29.90;73.60;99604.63;5052203;28;20147;-72
2022/05/28 11:25:04;;;;;;;8.15;5.00;;;;;;;29.18;72.82;99603.22;5053332;28;20176;-72
2022/05/28 11:28:10;;;;;;;22.25;6.75;;;;;;;29.26;73.85;99603.19;5054377;28;20032;-71
2022/05/28 11:30:43;;;;;;;16.30;5.50;;;;;;;29.49;70.21;99605.84;5071537;28;20456;-70
2022/05/28 11:33:34;;;;;;;14.57;6.22;;;;;;;29.50;71.09;99583.88;5061406;28;20068;-71
2022/05/28 11:36:06;;;;;;;10.55;5.60;;;;;;;29.76;70.06;99600.13;5053117;28;20029;-71
2022/05/28 11:38:40;;;;;;;12.40;5.97;;;;;;;28.90;69.75;99573.19;5056941;28;20119;-72
2022/05/28 11:41:31;;;;;;;8.70;5.63;;;;;;;29.09;69.67;99594.56;5071309;28;20093;-71
2022/05/28 11:44:32;;;;;;;11.25;5.97;;;;;;;29.96;71.23;99580.31;5054269;28;20025;-72
2022/05/28 11:47:21;;;;;;;10.38;6.72;;;;;;;29.78;69.73;99585.03;5010997;28;20168;-71
2022/05/28 11:52:53;;;;;;;9.25;6.05;;;;;;;29.36;76.94;99595.09;5063675;28;20130;-72
2022/05/28 11:55:21;;;;;;;9.55;6.18;;;;;;;29.44;74.45;99571.47;5054141;28;20033;-72
2022/05/28 11:58:00;;;;;;;15.85;6.72;;;;;;;29.32;72.94;99586.78;5060672;28;20065;-70
2022/05/28 12:00:31;;;;;;;14.15;6.63;;;;;;;29.50;73.17;99570.78;5051470;28;20086;-70
2022/05/28 12:03:24;;;;;;;11.40;6.60;;;;;;;29.07;75.98;99588.69;5051083;28;20033;-70
2022/05/28 12:05:56;;;;;;;10.70;6.70;;;;;;;28.67;77.83;99599.28;5056432;28;20555;-70
2022/05/28 12:08:42;;;;;;;13.00;6.70;;;;;;;29.26;77.16;99594.53;5063506;28;20041;-70
2022/05/28 12:11:30;;;;;;;15.80;7.25;;;;;;;29.57;80.38;99590.06;5059520;28;20067;-70
2022/05/28 12:14:02;;;;;;;12.25;6.88;;;;;;;28.85;80.09;99551.94;5046500;28;20048;-70